sensor_id;sensor_type;location;lat;lon;timestamp;P1;durP1;ratioP1;P2;durP2;ratioP2
68765;SDS011;55756;45.582;11.484;2023-11-22T00:01:02;11.55;;;6.40;;
68765;SDS011;55756;45.582;11.484;2023-11-22T00:03:31;12.57;;;6.45;;
68765;SDS011;55756;45.582;11.484;2023-11-22T00:05:57;14.57;;;6.70;;
68765;SDS011;55756;45.582;11.484;2023-11-22T00:08:23;10.63;;;6.07;;
68765;SDS011;55756;45.582;11.484;2023-11-22T00:10:49;13.48;;;6.95;;
68765;SDS011;55756;45.582;11.484;2023-11-22T00:13:15;14.25;;;6.80;;
68765;SDS011;55756;45.582;11.484;2023-11-22T00:15:40;13.75;;;7.05;;
68765;SDS011;55756;45.582;11.484;2023-11-22T00:18:06;11.55;;;6.72;;
68765;SDS011;55756;45.582;11.484;2023-11-22T00:20:32;14.38;;;7.18;;
68765;SDS011;55756;45.582;11.484;2023-11-22T00:22:58;13.05;;;7.10;;
68765;SDS011;55756;45.582;11.484;2023-11-22T00:25:24;13.85;;;7.60;;
68765;SDS011;55756;45.582;11.484;2023-11-22T00:27:50;14.25;;;7.60;;
68765;SDS011;55756;45.582;11.484;2023-11-22T00:30:16;13.48;;;7.25;;
68765;SDS011;55756;45.582;11.484;2023-11-22T00:32:42;13.85;;;7.43;;
68765;SDS011;55756;45.582;11.484;2023-11-22T00:35:08;15.60;;;7.93;;
68765;SDS011;55756;45.582;11.484;2023-11-22T00:37:35;15.30;;;8.23;;
68765;SDS011;55756;45.582;11.484;2023-11-22T00:40:01;13.93;;;7.68;;
68765;SDS011;55756;45.582;11.484;2023-11-22T00:42:39;16.05;;;8.00;;
68765;SDS011;55756;45.582;11.484;2023-11-22T00:45:07;17.38;;;7.72;;
68765;SDS011;55756;45.582;11.484;2023-11-22T00:50:01;13.70;;;6.88;;
68765;SDS011;55756;45.582;11.484;2023-11-22T00:52:30;14.15;;;6.72;;
68765;SDS011;55756;45.582;11.484;2023-11-22T00:54:56;12.50;;;6.45;;
68765;SDS011;55756;45.582;11.484;2023-11-22T00:57:22;11.85;;;5.80;;
68765;SDS011;55756;45.582;11.484;2023-11-22T00:59:48;10.75;;;5.70;;
68765;SDS011;55756;45.582;11.484;2023-11-22T01:02:15;12.25;;;5.70;;
68765;SDS011;55756;45.582;11.484;2023-11-22T01:04:41;11.25;;;5.85;;
68765;SDS011;55756;45.582;11.484;2023-11-22T01:07:06;10.98;;;5.47;;
68765;SDS011;55756;45.582;11.484;2023-11-22T01:09:32;12.15;;;5.47;;
68765;SDS011;55756;45.582;11.484;2023-11-22T01:11:59;14.20;;;5.28;;
68765;SDS011;55756;45.582;11.484;2023-11-22T01:14:25;10.48;;;4.88;;
68765;SDS011;55756;45.582;11.484;2023-11-22T01:16:51;10.93;;;5.30;;
68765;SDS011;55756;45.582;11.484;2023-11-22T01:19:17;10.65;;;5.47;;
68765;SDS011;55756;45.582;11.484;2023-11-22T01:21:43;10.35;;;4.95;;
68765;SDS011;55756;45.582;11.484;2023-11-22T01:24:09;10.32;;;5.35;;
68765;SDS011;55756;45.582;11.484;2023-11-22T01:26:36;11.13;;;5.03;;
68765;SDS011;55756;45.582;11.484;2023-11-22T01:29:03;9.77;;;5.25;;
68765;SDS011;55756;45.582;11.484;2023-11-22T01:31:29;10.52;;;4.85;;
68765;SDS011;55756;45.582;11.484;2023-11-22T01:33:55;9.55;;;4.72;;
68765;SDS011;55756;45.582;11.484;2023-11-22T01:36:21;11.05;;;4.88;;
68765;SDS011;55756;45.582;11.484;2023-11-22T01:38:46;10.20;;;4.72;;
68765;SDS011;55756;45.582;11.484;2023-11-22T01:41:12;9.20;;;4.47;;
68765;SDS011;55756;45.582;11.484;2023-11-22T01:43:39;9.90;;;5.13;;
68765;SDS011;55756;45.582;11.484;2023-11-22T01:46:10;10.43;;;4.90;;
68765;SDS011;55756;45.582;11.484;2023-11-22T01:48:50;9.48;;;4.53;;
68765;SDS011;55756;45.582;11.484;2023-11-22T01:51:18;10.65;;;4.40;;
68765;SDS011;55756;45.582;11.484;2023-11-22T01:53:48;9.75;;;4.75;;
68765;SDS011;55756;45.582;11.484;2023-11-22T01:56:18;10.10;;;4.30;;
68765;SDS011;55756;45.582;11.484;2023-11-22T01:58:49;10.38;;;4.13;;
68765;SDS011;55756;45.582;11.484;2023-11-22T02:01:15;8.75;;;3.97;;
68765;SDS011;55756;45.582;11.484;2023-11-22T02:03:41;9.45;;;4.18;;
68765;SDS011;55756;45.582;11.484;2023-11-22T02:06:07;8.25;;;3.65;;
68765;SDS011;55756;45.582;11.484;2023-11-22T02:08:34;8.82;;;3.90;;
68765;SDS011;55756;45.582;11.484;2023-11-22T02:11:01;8.52;;;3.80;;
68765;SDS011;55756;45.582;11.484;2023-11-22T02:13:29;8.75;;;3.80;;
68765;SDS011;55756;45.582;11.484;2023-11-22T02:15:55;8.50;;;3.97;;
68765;SDS011;55756;45.582;11.484;2023-11-22T02:18:22;8.68;;;3.47;;
68765;SDS011;55756;45.582;11.484;2023-11-22T02:20:49;7.57;;;3.47;;
68765;SDS011;55756;45.582;11.484;2023-11-22T02:23:15;8.18;;;3.58;;
68765;SDS011;55756;45.582;11.484;2023-11-22T02:25:40;7.43;;;3.50;;
68765;SDS011;55756;45.582;11.484;2023-11-22T02:28:06;8.43;;;3.60;;
68765;SDS011;55756;45.582;11.484;2023-11-22T02:30:33;10.00;;;3.60;;
68765;SDS011;55756;45.582;11.484;2023-11-22T02:32:59;7.10;;;3.60;;
68765;SDS011;55756;45.582;11.484;2023-11-22T02:35:26;8.10;;;3.65;;
68765;SDS011;55756;45.582;11.484;2023-11-22T02:37:56;7.80;;;3.40;;
68765;SDS011;55756;45.582;11.484;2023-11-22T02:40:22;7.65;;;3.30;;
68765;SDS011;55756;45.582;11.484;2023-11-22T02:42:49;7.93;;;3.60;;
68765;SDS011;55756;45.582;11.484;2023-11-22T02:45:17;7.75;;;3.50;;
68765;SDS011;55756;45.582;11.484;2023-11-22T02:47:44;7.05;;;2.90;;
68765;SDS011;55756;45.582;11.484;2023-11-22T02:50:14;6.75;;;3.08;;
68765;SDS011;55756;45.582;11.484;2023-11-22T02:52:41;9.75;;;3.25;;
68765;SDS011;55756;45.582;11.484;2023-11-22T02:55:08;6.78;;;3.00;;
68765;SDS011;55756;45.582;11.484;2023-11-22T02:57:35;8.25;;;3.10;;
68765;SDS011;55756;45.582;11.484;2023-11-22T03:00:08;7.30;;;3.30;;
68765;SDS011;55756;45.582;11.484;2023-11-22T03:02:38;8.40;;;3.28;;
68765;SDS011;55756;45.582;11.484;2023-11-22T03:05:07;6.50;;;2.88;;
68765;SDS011;55756;45.582;11.484;2023-11-22T03:07:34;6.87;;;3.00;;
68765;SDS011;55756;45.582;11.484;2023-11-22T03:10:01;7.07;;;2.78;;
68765;SDS011;55756;45.582;11.484;2023-11-22T03:12:27;9.27;;;2.97;;
68765;SDS011;55756;45.582;11.484;2023-11-22T03:14:55;7.10;;;2.90;;
68765;SDS011;55756;45.582;11.484;2023-11-22T03:17:24;6.25;;;2.58;;
68765;SDS011;55756;45.582;11.484;2023-11-22T03:19:51;6.00;;;3.00;;
68765;SDS011;55756;45.582;11.484;2023-11-22T03:22:17;7.47;;;3.10;;
68765;SDS011;55756;45.582;11.484;2023-11-22T03:24:42;7.25;;;2.95;;
68765;SDS011;55756;45.582;11.484;2023-11-22T03:27:08;7.53;;;2.90;;
68765;SDS011;55756;45.582;11.484;2023-11-22T03:29:35;7.30;;;3.05;;
68765;SDS011;55756;45.582;11.484;2023-11-22T03:32:02;7.78;;;2.85;;
68765;SDS011;55756;45.582;11.484;2023-11-22T03:34:29;6.25;;;2.90;;
68765;SDS011;55756;45.582;11.484;2023-11-22T03:36:54;7.28;;;2.97;;
68765;SDS011;55756;45.582;11.484;2023-11-22T03:39:20;8.85;;;2.95;;
68765;SDS011;55756;45.582;11.484;2023-11-22T03:41:47;9.48;;;3.10;;
68765;SDS011;55756;45.582;11.484;2023-11-22T03:44:15;5.63;;;2.55;;
68765;SDS011;55756;45.582;11.484;2023-11-22T03:46:41;9.98;;;2.90;;
68765;SDS011;55756;45.582;11.484;2023-11-22T03:49:07;7.07;;;2.90;;
68765;SDS011;55756;45.582;11.484;2023-11-22T03:51:33;8.10;;;2.92;;
68765;SDS011;55756;45.582;11.484;2023-11-22T03:54:04;7.80;;;3.10;;
68765;SDS011;55756;45.582;11.484;2023-11-22T03:56:31;7.88;;;3.20;;
68765;SDS011;55756;45.582;11.484;2023-11-22T03:58:57;7.47;;;3.25;;
68765;SDS011;55756;45.582;11.484;2023-11-22T04:01:22;8.13;;;3.20;;
68765;SDS011;55756;45.582;11.484;2023-11-22T04:03:48;7.72;;;3.05;;
68765;SDS011;55756;45.582;11.484;2023-11-22T04:06:17;7.00;;;3.10;;
68765;SDS011;55756;45.582;11.484;2023-11-22T04:08:44;5.78;;;2.83;;
68765;SDS011;55756;45.582;11.484;2023-11-22T04:11:11;8.32;;;3.20;;
68765;SDS011;55756;45.582;11.484;2023-11-22T04:13:37;7.82;;;3.00;;
68765;SDS011;55756;45.582;11.484;2023-11-22T04:16:04;7.38;;;3.08;;
68765;SDS011;55756;45.582;11.484;2023-11-22T04:18:36;5.63;;;2.50;;
68765;SDS011;55756;45.582;11.484;2023-11-22T04:21:05;6.97;;;2.90;;
68765;SDS011;55756;45.582;11.484;2023-11-22T04:23:31;6.35;;;2.60;;
68765;SDS011;55756;45.582;11.484;2023-11-22T04:25:58;6.57;;;2.70;;
68765;SDS011;55756;45.582;11.484;2023-11-22T04:28:24;7.75;;;3.10;;
68765;SDS011;55756;45.582;11.484;2023-11-22T04:30:50;7.93;;;3.33;;
68765;SDS011;55756;45.582;11.484;2023-11-22T04:33:17;8.07;;;3.88;;
68765;SDS011;55756;45.582;11.484;2023-11-22T04:35:43;7.55;;;3.72;;
68765;SDS011;55756;45.582;11.484;2023-11-22T04:38:09;8.13;;;4.03;;
68765;SDS011;55756;45.582;11.484;2023-11-22T04:40:35;9.55;;;4.20;;
68765;SDS011;55756;45.582;11.484;2023-11-22T04:43:00;9.30;;;4.95;;
68765;SDS011;55756;45.582;11.484;2023-11-22T04:45:27;10.57;;;4.80;;
68765;SDS011;55756;45.582;11.484;2023-11-22T04:47:53;8.55;;;4.80;;
68765;SDS011;55756;45.582;11.484;2023-11-22T04:50:19;9.98;;;5.32;;
68765;SDS011;55756;45.582;11.484;2023-11-22T04:52:44;15.20;;;5.03;;
68765;SDS011;55756;45.582;11.484;2023-11-22T04:55:10;10.93;;;4.72;;
68765;SDS011;55756;45.582;11.484;2023-11-22T04:57:36;7.68;;;3.65;;
68765;SDS011;55756;45.582;11.484;2023-11-22T05:00:02;7.63;;;3.42;;
68765;SDS011;55756;45.582;11.484;2023-11-22T05:02:30;6.87;;;3.17;;
68765;SDS011;55756;45.582;11.484;2023-11-22T05:04:55;9.80;;;3.30;;
68765;SDS011;55756;45.582;11.484;2023-11-22T05:07:22;8.57;;;3.33;;
68765;SDS011;55756;45.582;11.484;2023-11-22T05:09:48;7.57;;;3.60;;
68765;SDS011;55756;45.582;11.484;2023-11-22T05:12:13;7.38;;;3.70;;
68765;SDS011;55756;45.582;11.484;2023-11-22T05:14:43;8.70;;;3.70;;
68765;SDS011;55756;45.582;11.484;2023-11-22T05:17:10;8.30;;;3.85;;
68765;SDS011;55756;45.582;11.484;2023-11-22T05:19:37;7.72;;;3.20;;
68765;SDS011;55756;45.582;11.484;2023-11-22T05:22:04;7.35;;;3.00;;
68765;SDS011;55756;45.582;11.484;2023-11-22T05:24:30;8.38;;;3.30;;
68765;SDS011;55756;45.582;11.484;2023-11-22T05:26:55;9.15;;;4.22;;
68765;SDS011;55756;45.582;11.484;2023-11-22T05:29:22;10.02;;;4.82;;
68765;SDS011;55756;45.582;11.484;2023-11-22T05:31:47;9.60;;;5.68;;
68765;SDS011;55756;45.582;11.484;2023-11-22T05:34:13;9.68;;;5.60;;
68765;SDS011;55756;45.582;11.484;2023-11-22T05:36:39;12.65;;;6.90;;
68765;SDS011;55756;45.582;11.484;2023-11-22T05:39:05;10.10;;;5.05;;
68765;SDS011;55756;45.582;11.484;2023-11-22T05:41:31;9.73;;;4.75;;
68765;SDS011;55756;45.582;11.484;2023-11-22T05:43:57;9.85;;;5.40;;
68765;SDS011;55756;45.582;11.484;2023-11-22T05:46:23;11.40;;;5.50;;
68765;SDS011;55756;45.582;11.484;2023-11-22T05:48:52;8.95;;;4.90;;
68765;SDS011;55756;45.582;11.484;2023-11-22T05:51:17;11.30;;;4.70;;
68765;SDS011;55756;45.582;11.484;2023-11-22T05:53:44;8.38;;;4.60;;
68765;SDS011;55756;45.582;11.484;2023-11-22T05:56:09;8.32;;;4.60;;
68765;SDS011;55756;45.582;11.484;2023-11-22T05:58:35;9.77;;;4.75;;
68765;SDS011;55756;45.582;11.484;2023-11-22T06:01:03;8.20;;;4.57;;
68765;SDS011;55756;45.582;11.484;2023-11-22T06:03:33;9.73;;;4.80;;
68765;SDS011;55756;45.582;11.484;2023-11-22T06:06:00;9.77;;;5.22;;
68765;SDS011;55756;45.582;11.484;2023-11-22T06:08:28;10.02;;;4.97;;
68765;SDS011;55756;45.582;11.484;2023-11-22T06:10:56;8.95;;;5.00;;
68765;SDS011;55756;45.582;11.484;2023-11-22T06:13:23;9.45;;;4.93;;
68765;SDS011;55756;45.582;11.484;2023-11-22T06:15:49;9.30;;;4.97;;
68765;SDS011;55756;45.582;11.484;2023-11-22T06:18:15;11.90;;;5.75;;
68765;SDS011;55756;45.582;11.484;2023-11-22T06:20:41;12.23;;;5.32;;
68765;SDS011;55756;45.582;11.484;2023-11-22T06:23:07;10.50;;;5.00;;
68765;SDS011;55756;45.582;11.484;2023-11-22T06:25:33;7.63;;;4.20;;
68765;SDS011;55756;45.582;11.484;2023-11-22T06:28:03;9.65;;;3.95;;
68765;SDS011;55756;45.582;11.484;2023-11-22T06:30:28;7.30;;;3.67;;
68765;SDS011;55756;45.582;11.484;2023-11-22T06:32:55;9.02;;;3.80;;
68765;SDS011;55756;45.582;11.484;2023-11-22T06:35:21;10.13;;;3.67;;
68765;SDS011;55756;45.582;11.484;2023-11-22T06:37:48;8.90;;;3.67;;
68765;SDS011;55756;45.582;11.484;2023-11-22T06:40:14;9.60;;;3.90;;
68765;SDS011;55756;45.582;11.484;2023-11-22T06:42:40;9.07;;;4.00;;
68765;SDS011;55756;45.582;11.484;2023-11-22T06:45:06;8.23;;;4.00;;
68765;SDS011;55756;45.582;11.484;2023-11-22T06:47:44;10.57;;;4.18;;
68765;SDS011;55756;45.582;11.484;2023-11-22T06:50:10;9.00;;;3.80;;
68765;SDS011;55756;45.582;11.484;2023-11-22T06:52:37;7.78;;;3.42;;
68765;SDS011;55756;45.582;11.484;2023-11-22T06:55:03;9.02;;;3.65;;
68765;SDS011;55756;45.582;11.484;2023-11-22T06:57:30;11.82;;;4.57;;
68765;SDS011;55756;45.582;11.484;2023-11-22T06:59:56;13.43;;;5.00;;
68765;SDS011;55756;45.582;11.484;2023-11-22T07:02:22;12.63;;;5.45;;
68765;SDS011;55756;45.582;11.484;2023-11-22T07:04:48;13.35;;;5.43;;
68765;SDS011;55756;45.582;11.484;2023-11-22T07:07:14;11.63;;;6.30;;
68765;SDS011;55756;45.582;11.484;2023-11-22T07:09:43;14.85;;;6.43;;
68765;SDS011;55756;45.582;11.484;2023-11-22T07:12:09;10.85;;;6.00;;
68765;SDS011;55756;45.582;11.484;2023-11-22T07:14:35;10.60;;;6.07;;
68765;SDS011;55756;45.582;11.484;2023-11-22T07:17:02;13.73;;;6.40;;
68765;SDS011;55756;45.582;11.484;2023-11-22T07:19:28;11.23;;;6.63;;
68765;SDS011;55756;45.582;11.484;2023-11-22T07:21:54;10.68;;;6.40;;
68765;SDS011;55756;45.582;11.484;2023-11-22T07:24:20;13.25;;;7.03;;
68765;SDS011;55756;45.582;11.484;2023-11-22T07:26:46;13.65;;;6.70;;
68765;SDS011;55756;45.582;11.484;2023-11-22T07:29:12;13.23;;;6.82;;
68765;SDS011;55756;45.582;11.484;2023-11-22T07:31:38;13.43;;;6.82;;
68765;SDS011;55756;45.582;11.484;2023-11-22T07:34:05;14.50;;;8.40;;
68765;SDS011;55756;45.582;11.484;2023-11-22T07:36:31;20.33;;;12.23;;
68765;SDS011;55756;45.582;11.484;2023-11-22T07:38:57;17.42;;;12.10;;
68765;SDS011;55756;45.582;11.484;2023-11-22T07:41:24;22.38;;;12.80;;
68765;SDS011;55756;45.582;11.484;2023-11-22T07:43:51;17.77;;;11.18;;
68765;SDS011;55756;45.582;11.484;2023-11-22T07:46:17;20.92;;;12.20;;
68765;SDS011;55756;45.582;11.484;2023-11-22T07:48:44;20.63;;;14.10;;
68765;SDS011;55756;45.582;11.484;2023-11-22T07:51:12;24.07;;;13.50;;
68765;SDS011;55756;45.582;11.484;2023-11-22T07:53:41;20.35;;;11.98;;
68765;SDS011;55756;45.582;11.484;2023-11-22T07:56:08;20.33;;;10.80;;
68765;SDS011;55756;45.582;11.484;2023-11-22T07:58:36;22.10;;;9.27;;
68765;SDS011;55756;45.582;11.484;2023-11-22T08:01:03;21.25;;;9.13;;
68765;SDS011;55756;45.582;11.484;2023-11-22T08:03:29;16.25;;;9.20;;
68765;SDS011;55756;45.582;11.484;2023-11-22T08:05:55;15.50;;;9.07;;
68765;SDS011;55756;45.582;11.484;2023-11-22T08:08:21;16.38;;;8.48;;
68765;SDS011;55756;45.582;11.484;2023-11-22T08:10:48;15.05;;;7.82;;
68765;SDS011;55756;45.582;11.484;2023-11-22T08:13:14;15.57;;;8.10;;
68765;SDS011;55756;45.582;11.484;2023-11-22T08:15:41;13.82;;;7.82;;
68765;SDS011;55756;45.582;11.484;2023-11-22T08:18:07;16.45;;;7.53;;
68765;SDS011;55756;45.582;11.484;2023-11-22T08:20:32;14.70;;;7.90;;
68765;SDS011;55756;45.582;11.484;2023-11-22T08:22:58;18.00;;;8.45;;
68765;SDS011;55756;45.582;11.484;2023-11-22T08:25:25;15.85;;;8.60;;
68765;SDS011;55756;45.582;11.484;2023-11-22T08:27:51;16.00;;;8.60;;
68765;SDS011;55756;45.582;11.484;2023-11-22T08:30:18;15.80;;;8.98;;
68765;SDS011;55756;45.582;11.484;2023-11-22T08:32:45;18.50;;;9.75;;
68765;SDS011;55756;45.582;11.484;2023-11-22T08:35:19;18.55;;;9.90;;
68765;SDS011;55756;45.582;11.484;2023-11-22T08:37:48;19.77;;;10.23;;
68765;SDS011;55756;45.582;11.484;2023-11-22T08:40:15;16.60;;;9.80;;
68765;SDS011;55756;45.582;11.484;2023-11-22T08:42:45;16.83;;;8.85;;
68765;SDS011;55756;45.582;11.484;2023-11-22T08:45:12;14.65;;;6.90;;
68765;SDS011;55756;45.582;11.484;2023-11-22T08:47:39;13.40;;;5.97;;
68765;SDS011;55756;45.582;11.484;2023-11-22T08:50:05;13.82;;;6.22;;
68765;SDS011;55756;45.582;11.484;2023-11-22T08:52:40;15.93;;;5.82;;
68765;SDS011;55756;45.582;11.484;2023-11-22T08:55:08;13.90;;;5.97;;
68765;SDS011;55756;45.582;11.484;2023-11-22T08:57:37;10.98;;;5.47;;
68765;SDS011;55756;45.582;11.484;2023-11-22T09:00:04;14.23;;;6.25;;
68765;SDS011;55756;45.582;11.484;2023-11-22T09:02:35;14.27;;;6.40;;
68765;SDS011;55756;45.582;11.484;2023-11-22T09:05:01;14.32;;;8.00;;
68765;SDS011;55756;45.582;11.484;2023-11-22T09:07:33;16.25;;;8.30;;
68765;SDS011;55756;45.582;11.484;2023-11-22T09:10:01;13.15;;;6.28;;
68765;SDS011;55756;45.582;11.484;2023-11-22T09:12:35;14.05;;;5.95;;
68765;SDS011;55756;45.582;11.484;2023-11-22T09:15:03;12.85;;;5.50;;
68765;SDS011;55756;45.582;11.484;2023-11-22T09:17:29;10.07;;;5.30;;
68765;SDS011;55756;45.582;11.484;2023-11-22T09:19:56;13.13;;;5.43;;
68765;SDS011;55756;45.582;11.484;2023-11-22T09:22:23;12.27;;;5.63;;
68765;SDS011;55756;45.582;11.484;2023-11-22T09:24:52;10.57;;;5.32;;
68765;SDS011;55756;45.582;11.484;2023-11-22T09:27:17;10.40;;;4.85;;
68765;SDS011;55756;45.582;11.484;2023-11-22T09:29:45;9.93;;;4.13;;
68765;SDS011;55756;45.582;11.484;2023-11-22T09:32:11;10.30;;;4.10;;
68765;SDS011;55756;45.582;11.484;2023-11-22T09:34:38;8.18;;;3.85;;
68765;SDS011;55756;45.582;11.484;2023-11-22T09:37:03;8.50;;;3.58;;
68765;SDS011;55756;45.582;11.484;2023-11-22T09:39:29;7.18;;;3.35;;
68765;SDS011;55756;45.582;11.484;2023-11-22T09:41:55;7.97;;;3.45;;
68765;SDS011;55756;45.582;11.484;2023-11-22T09:44:21;8.77;;;3.70;;
68765;SDS011;55756;45.582;11.484;2023-11-22T09:46:50;8.20;;;3.80;;
68765;SDS011;55756;45.582;11.484;2023-11-22T09:49:20;10.80;;;3.97;;
68765;SDS011;55756;45.582;11.484;2023-11-22T09:51:49;9.00;;;3.53;;
68765;SDS011;55756;45.582;11.484;2023-11-22T09:54:17;10.23;;;3.67;;
68765;SDS011;55756;45.582;11.484;2023-11-22T09:56:44;8.80;;;4.18;;
68765;SDS011;55756;45.582;11.484;2023-11-22T09:59:15;8.70;;;3.90;;
68765;SDS011;55756;45.582;11.484;2023-11-22T10:01:43;10.50;;;3.78;;
68765;SDS011;55756;45.582;11.484;2023-11-22T10:04:12;11.75;;;4.55;;
68765;SDS011;55756;45.582;11.484;2023-11-22T10:06:38;11.80;;;4.57;;
68765;SDS011;55756;45.582;11.484;2023-11-22T10:09:05;11.43;;;4.50;;
68765;SDS011;55756;45.582;11.484;2023-11-22T10:11:34;8.63;;;4.07;;
68765;SDS011;55756;45.582;11.484;2023-11-22T10:14:01;7.80;;;4.07;;
68765;SDS011;55756;45.582;11.484;2023-11-22T10:16:27;9.60;;;4.40;;
68765;SDS011;55756;45.582;11.484;2023-11-22T10:18:53;10.32;;;4.15;;
68765;SDS011;55756;45.582;11.484;2023-11-22T10:21:20;8.32;;;3.70;;
68765;SDS011;55756;45.582;11.484;2023-11-22T10:23:49;9.38;;;4.57;;
68765;SDS011;55756;45.582;11.484;2023-11-22T10:26:18;8.35;;;2.92;;
68765;SDS011;55756;45.582;11.484;2023-11-22T10:28:44;8.10;;;2.60;;
68765;SDS011;55756;45.582;11.484;2023-11-22T10:31:10;7.38;;;2.75;;
68765;SDS011;55756;45.582;11.484;2023-11-22T10:33:39;6.15;;;2.70;;
68765;SDS011;55756;45.582;11.484;2023-11-22T10:36:07;5.88;;;2.20;;
68765;SDS011;55756;45.582;11.484;2023-11-22T10:38:33;7.72;;;3.28;;
68765;SDS011;55756;45.582;11.484;2023-11-22T10:40:59;8.45;;;3.92;;
68765;SDS011;55756;45.582;11.484;2023-11-22T10:45:57;6.82;;;3.13;;
68765;SDS011;55756;45.582;11.484;2023-11-22T10:48:24;5.82;;;2.40;;
68765;SDS011;55756;45.582;11.484;2023-11-22T10:50:50;5.93;;;2.13;;
68765;SDS011;55756;45.582;11.484;2023-11-22T10:53:25;6.05;;;1.98;;
68765;SDS011;55756;45.582;11.484;2023-11-22T10:55:59;5.10;;;2.07;;
68765;SDS011;55756;45.582;11.484;2023-11-22T10:58:38;6.82;;;2.10;;
68765;SDS011;55756;45.582;11.484;2023-11-22T11:01:14;5.55;;;1.75;;
68765;SDS011;55756;45.582;11.484;2023-11-22T11:04:03;4.45;;;1.80;;
68765;SDS011;55756;45.582;11.484;2023-11-22T11:06:37;5.05;;;2.00;;
68765;SDS011;55756;45.582;11.484;2023-11-22T11:09:03;4.72;;;2.10;;
68765;SDS011;55756;45.582;11.484;2023-11-22T11:11:37;5.43;;;1.90;;
68765;SDS011;55756;45.582;11.484;2023-11-22T11:14:04;6.63;;;2.07;;
68765;SDS011;55756;45.582;11.484;2023-11-22T11:19:02;4.75;;;1.92;;
68765;SDS011;55756;45.582;11.484;2023-11-22T11:21:30;4.95;;;1.67;;
68765;SDS011;55756;45.582;11.484;2023-11-22T11:23:57;4.83;;;2.00;;
68765;SDS011;55756;45.582;11.484;2023-11-22T11:26:28;5.10;;;1.90;;
68765;SDS011;55756;45.582;11.484;2023-11-22T11:28:57;4.70;;;1.90;;
68765;SDS011;55756;45.582;11.484;2023-11-22T11:31:23;5.35;;;2.20;;
68765;SDS011;55756;45.582;11.484;2023-11-22T11:33:55;5.63;;;1.92;;
68765;SDS011;55756;45.582;11.484;2023-11-22T11:36:26;6.78;;;2.25;;
68765;SDS011;55756;45.582;11.484;2023-11-22T11:38:58;5.90;;;2.08;;
68765;SDS011;55756;45.582;11.484;2023-11-22T11:41:29;4.30;;;1.77;;
68765;SDS011;55756;45.582;11.484;2023-11-22T11:43:57;4.97;;;2.20;;
68765;SDS011;55756;45.582;11.484;2023-11-22T11:46:26;5.53;;;2.00;;
68765;SDS011;55756;45.582;11.484;2023-11-22T11:48:53;6.03;;;2.03;;
68765;SDS011;55756;45.582;11.484;2023-11-22T11:51:27;5.68;;;2.47;;
68765;SDS011;55756;45.582;11.484;2023-11-22T11:53:54;6.72;;;2.83;;
68765;SDS011;55756;45.582;11.484;2023-11-22T11:56:20;7.88;;;2.80;;
68765;SDS011;55756;45.582;11.484;2023-11-22T11:58:47;7.05;;;3.03;;
68765;SDS011;55756;45.582;11.484;2023-11-22T12:01:15;5.70;;;2.50;;
68765;SDS011;55756;45.582;11.484;2023-11-22T12:03:42;6.50;;;2.60;;
68765;SDS011;55756;45.582;11.484;2023-11-22T12:06:09;7.13;;;2.63;;
68765;SDS011;55756;45.582;11.484;2023-11-22T12:08:35;5.72;;;2.40;;
68765;SDS011;55756;45.582;11.484;2023-11-22T12:11:01;6.38;;;2.90;;
68765;SDS011;55756;45.582;11.484;2023-11-22T12:13:29;6.90;;;2.60;;
68765;SDS011;55756;45.582;11.484;2023-11-22T12:15:55;6.55;;;2.80;;
68765;SDS011;55756;45.582;11.484;2023-11-22T12:18:21;6.88;;;3.08;;
68765;SDS011;55756;45.582;11.484;2023-11-22T12:20:57;6.80;;;2.70;;
68765;SDS011;55756;45.582;11.484;2023-11-22T12:23:25;7.57;;;2.92;;
68765;SDS011;55756;45.582;11.484;2023-11-22T12:25:56;7.70;;;2.83;;
68765;SDS011;55756;45.582;11.484;2023-11-22T12:28:29;7.38;;;3.10;;
68765;SDS011;55756;45.582;11.484;2023-11-22T12:31:07;7.15;;;3.35;;
68765;SDS011;55756;45.582;11.484;2023-11-22T12:33:35;6.32;;;3.08;;
68765;SDS011;55756;45.582;11.484;2023-11-22T12:36:02;6.50;;;2.97;;
68765;SDS011;55756;45.582;11.484;2023-11-22T12:38:29;8.20;;;3.45;;
68765;SDS011;55756;45.582;11.484;2023-11-22T12:40:58;9.32;;;3.72;;
68765;SDS011;55756;45.582;11.484;2023-11-22T12:43:24;8.55;;;3.25;;
68765;SDS011;55756;45.582;11.484;2023-11-22T12:46:03;8.18;;;3.85;;
68765;SDS011;55756;45.582;11.484;2023-11-22T12:48:33;8.13;;;3.58;;
68765;SDS011;55756;45.582;11.484;2023-11-22T12:50:59;9.27;;;3.55;;
68765;SDS011;55756;45.582;11.484;2023-11-22T12:53:26;8.70;;;3.58;;
68765;SDS011;55756;45.582;11.484;2023-11-22T12:55:53;10.20;;;4.00;;
68765;SDS011;55756;45.582;11.484;2023-11-22T12:58:25;8.73;;;3.80;;
68765;SDS011;55756;45.582;11.484;2023-11-22T13:00:51;8.70;;;3.45;;
68765;SDS011;55756;45.582;11.484;2023-11-22T13:03:23;8.25;;;3.60;;
68765;SDS011;55756;45.582;11.484;2023-11-22T13:05:50;8.05;;;3.40;;
68765;SDS011;55756;45.582;11.484;2023-11-22T13:08:17;9.82;;;3.50;;
68765;SDS011;55756;45.582;11.484;2023-11-22T13:10:44;9.25;;;3.60;;
68765;SDS011;55756;45.582;11.484;2023-11-22T13:13:12;7.40;;;3.55;;
68765;SDS011;55756;45.582;11.484;2023-11-22T13:15:41;7.80;;;3.70;;
68765;SDS011;55756;45.582;11.484;2023-11-22T13:18:07;10.32;;;3.95;;
68765;SDS011;55756;45.582;11.484;2023-11-22T13:20:34;9.68;;;3.90;;
68765;SDS011;55756;45.582;11.484;2023-11-22T13:23:06;7.10;;;3.35;;
68765;SDS011;55756;45.582;11.484;2023-11-22T13:25:32;8.02;;;3.80;;
68765;SDS011;55756;45.582;11.484;2023-11-22T13:27:58;8.77;;;3.80;;
68765;SDS011;55756;45.582;11.484;2023-11-22T13:30:24;7.38;;;3.90;;
68765;SDS011;55756;45.582;11.484;2023-11-22T13:32:53;8.20;;;3.88;;
68765;SDS011;55756;45.582;11.484;2023-11-22T13:35:31;10.95;;;4.15;;
68765;SDS011;55756;45.582;11.484;2023-11-22T13:38:02;7.45;;;3.97;;
68765;SDS011;55756;45.582;11.484;2023-11-22T13:40:32;9.27;;;4.15;;
68765;SDS011;55756;45.582;11.484;2023-11-22T13:42:59;8.25;;;3.90;;
68765;SDS011;55756;45.582;11.484;2023-11-22T13:45:24;9.00;;;4.40;;
68765;SDS011;55756;45.582;11.484;2023-11-22T13:47:51;7.88;;;4.00;;
68765;SDS011;55756;45.582;11.484;2023-11-22T13:50:22;9.57;;;4.45;;
68765;SDS011;55756;45.582;11.484;2023-11-22T13:52:49;9.68;;;4.25;;
68765;SDS011;55756;45.582;11.484;2023-11-22T13:55:15;10.52;;;4.10;;
68765;SDS011;55756;45.582;11.484;2023-11-22T13:57:44;9.68;;;3.83;;
68765;SDS011;55756;45.582;11.484;2023-11-22T14:00:14;9.07;;;3.78;;
68765;SDS011;55756;45.582;11.484;2023-11-22T14:02:50;9.40;;;4.03;;
68765;SDS011;55756;45.582;11.484;2023-11-22T14:05:32;7.78;;;3.78;;
68765;SDS011;55756;45.582;11.484;2023-11-22T14:07:59;9.93;;;4.13;;
68765;SDS011;55756;45.582;11.484;2023-11-22T14:10:25;10.55;;;4.82;;
68765;SDS011;55756;45.582;11.484;2023-11-22T14:12:55;13.18;;;5.47;;
68765;SDS011;55756;45.582;11.484;2023-11-22T14:15:25;12.85;;;5.85;;
68765;SDS011;55756;45.582;11.484;2023-11-22T14:17:53;12.80;;;5.88;;
68765;SDS011;55756;45.582;11.484;2023-11-22T14:20:20;9.38;;;4.40;;
68765;SDS011;55756;45.582;11.484;2023-11-22T14:22:46;9.10;;;4.20;;
68765;SDS011;55756;45.582;11.484;2023-11-22T14:25:13;7.93;;;4.05;;
68765;SDS011;55756;45.582;11.484;2023-11-22T14:27:44;9.90;;;3.85;;
68765;SDS011;55756;45.582;11.484;2023-11-22T14:30:12;9.48;;;4.05;;
68765;SDS011;55756;45.582;11.484;2023-11-22T14:32:42;10.65;;;3.83;;
68765;SDS011;55756;45.582;11.484;2023-11-22T14:35:09;10.88;;;4.50;;
68765;SDS011;55756;45.582;11.484;2023-11-22T14:37:35;10.32;;;4.70;;